KSAR

Sparta Community-Hunter Field Airport

Sparta, Illinois, USA
METAR KSAR 201035Z AUTO 34012G17KT 10SM CLR M09/M12 A3026 RMK AO2 T10931119
Observed Flight Rules
Jan-20 @ 10:35 UTC (25 minutes ago) Visual Flight Rules
Wind Visibility Clouds
340° at 12 knots
 Gusting to 17 knots
10 miles
  • Clear skies
Temperatures Readings
Current -9°C / 16°F
Dewpoint -12°C / 10°F
Humidity 79%
Altimeter 30.26" Hg
Pressure 1024.72 hPa
Elevation 164
METAR KSAR 201035Z AUTO 34012G17KT 10SM CLR M09/M12 A3026 RMK AO2 T10931119
Observed Flight Rules
Jan-20 @ 10:35 UTC
(25 minutes ago)
VFR
Wind Visibility
340° at 12 knots
 Gusting to 17 knots
10 miles
Clouds
  • Clear skies
Temperature Dewpoint
-9°C / 16°F -12°C / 10°F
Humidity Altimeter Pressure
79% 30.26" Hg 1024.72 hPa